Time;durP1;ratioP1;P1;durP2;ratioP2;P2;SDS_P1;SDS_P2;PMS_P1;PMS_P2;Temp;Humidity;BMP_temperature;BMP_pressure;BME280_temperature;BME280_humidity;BME280_pressure;Samples;Min_cycle;Max_cycle;Signal;HPM_P1;HPM_P2
2023/07/05 00:02:14;;;;;;;29.73;15.23;;;;;;;16.59;100.00;100501.16;5036927;28;20084;-70
2023/07/05 00:04:41;;;;;;;22.92;14.35;;;;;;;16.56;100.00;100502.28;5035822;28;20198;-70
2023/07/05 00:07:06;;;;;;;25.48;15.05;;;;;;;16.54;100.00;100501.56;5036493;28;20033;-70
2023/07/05 00:09:32;;;;;;;32.70;15.88;;;;;;;16.48;100.00;100499.47;5030424;28;20038;-70
2023/07/05 00:11:57;;;;;;;26.30;15.77;;;;;;;16.27;100.00;100490.72;5030624;28;20033;-70
2023/07/05 00:14:23;;;;;;;24.05;15.75;;;;;;;16.31;100.00;100495.66;5030216;28;20499;-70
2023/07/05 00:16:49;;;;;;;26.92;15.95;;;;;;;16.38;100.00;100487.88;5031499;28;20080;-71
2023/07/05 00:19:14;;;;;;;24.17;14.85;;;;;;;16.38;100.00;100487.03;5032503;28;20112;-70
2023/07/05 00:21:40;;;;;;;28.13;15.75;;;;;;;16.22;100.00;100485.75;5033095;28;20827;-70
2023/07/05 00:24:06;;;;;;;23.27;14.13;;;;;;;16.34;100.00;100477.53;5029443;28;20040;-69
2023/07/05 00:26:32;;;;;;;27.92;12.13;;;;;;;16.39;100.00;100475.25;5031030;28;20068;-70
2023/07/05 00:28:57;;;;;;;26.25;13.52;;;;;;;16.49;100.00;100466.16;5033964;28;20775;-70
2023/07/05 00:31:23;;;;;;;22.42;14.07;;;;;;;16.56;100.00;100453.81;5033495;28;20111;-70
2023/07/05 00:33:49;;;;;;;22.35;12.05;;;;;;;16.50;100.00;100457.09;5034628;28;20048;-70
2023/07/05 00:36:14;;;;;;;21.58;13.40;;;;;;;16.34;100.00;100438.00;5029354;28;20037;-70
2023/07/05 00:38:40;;;;;;;23.60;13.82;;;;;;;16.35;100.00;100438.84;5034593;28;20696;-70
2023/07/05 00:41:05;;;;;;;26.00;12.70;;;;;;;16.35;100.00;100437.00;5034079;28;20699;-70
2023/07/05 00:43:31;;;;;;;19.50;12.30;;;;;;;16.44;100.00;100428.06;5037069;28;20132;-70
2023/07/05 00:45:58;;;;;;;18.58;11.88;;;;;;;16.53;100.00;100412.91;5029596;28;20822;-71
2023/07/05 00:48:50;;;;;;;19.98;11.77;;;;;;;16.62;100.00;100403.06;5031274;28;20033;-70
2023/07/05 00:51:20;;;;;;;23.92;12.35;;;;;;;16.55;100.00;100390.22;5030806;28;20034;-70
2023/07/05 00:53:47;;;;;;;22.67;12.65;;;;;;;16.62;100.00;100374.34;5043915;28;20041;-70
2023/07/05 00:56:22;;;;;;;22.77;12.85;;;;;;;16.61;100.00;100361.84;5040628;28;20026;-70
2023/07/05 00:58:50;;;;;;;23.63;12.85;;;;;;;16.72;100.00;100360.88;5031122;28;20113;-70
2023/07/05 01:01:16;;;;;;;24.00;13.13;;;;;;;16.62;100.00;100350.09;5032950;28;20038;-70
2023/07/05 01:03:43;;;;;;;23.05;13.23;;;;;;;16.55;100.00;100347.13;5034127;28;20071;-70
2023/07/05 01:06:12;;;;;;;27.80;13.70;;;;;;;16.58;100.00;100351.41;5037171;28;20029;-70
2023/07/05 01:08:38;;;;;;;27.98;14.50;;;;;;;16.67;100.00;100349.66;5037153;28;20033;-70
2023/07/05 01:11:16;;;;;;;30.17;16.58;;;;;;;16.58;100.00;100338.78;5039109;28;20033;-70
2023/07/05 01:13:54;;;;;;;25.70;15.02;;;;;;;16.17;100.00;100337.38;5033760;28;20033;-70
2023/07/05 01:16:31;;;;;;;25.50;14.48;;;;;;;16.19;100.00;100324.59;5031669;28;20037;-70
2023/07/05 01:19:12;;;;;;;33.42;15.63;;;;;;;16.12;100.00;100320.81;5033406;28;20111;-70
2023/07/05 01:21:43;;;;;;;25.20;15.73;;;;;;;16.04;100.00;100308.09;5036860;28;20496;-70
2023/07/05 01:24:48;;;;;;;25.70;14.47;;;;;;;16.10;100.00;100301.28;5035285;28;20075;-70
2023/07/05 01:27:39;;;;;;;26.45;15.00;;;;;;;16.14;100.00;100300.00;5033690;28;20029;-70
2023/07/05 01:30:10;;;;;;;24.52;13.82;;;;;;;16.18;100.00;100296.00;5038461;28;20302;-70
2023/07/05 01:32:59;;;;;;;22.70;13.30;;;;;;;16.28;100.00;100293.28;5038712;28;20035;-70
2023/07/05 01:35:30;;;;;;;23.42;13.95;;;;;;;16.28;100.00;100282.53;5031559;28;20049;-70
2023/07/05 01:37:57;;;;;;;24.85;12.82;;;;;;;16.33;100.00;100282.94;5043635;28;20261;-70
2023/07/05 01:40:25;;;;;;;18.98;11.50;;;;;;;16.43;100.00;100275.66;5036907;28;20893;-70
2023/07/05 01:42:57;;;;;;;19.95;13.07;;;;;;;16.41;100.00;100274.09;5032811;28;20044;-69
2023/07/05 01:45:26;;;;;;;;;;;;;;;16.22;100.00;100273.22;5041327;28;20116;-71
2023/07/05 01:47:58;;;;;;;25.00;13.10;;;;;;;16.30;100.00;100264.38;5036494;28;20023;-70
2023/07/05 01:50:34;;;;;;;16.73;11.77;;;;;;;16.33;100.00;100253.34;5032897;28;20474;-70
2023/07/05 01:53:09;;;;;;;22.45;12.48;;;;;;;16.36;100.00;100260.25;5039290;28;20937;-70
2023/07/05 01:55:42;;;;;;;19.38;12.40;;;;;;;16.38;100.00;100250.19;5034663;28;20034;-69
2023/07/05 01:58:14;;;;;;;16.70;11.68;;;;;;;16.29;100.00;100236.63;5038051;28;20541;-70
2023/07/05 02:00:42;;;;;;;17.38;10.80;;;;;;;16.34;100.00;100236.19;5033920;28;20045;-70
2023/07/05 02:03:12;;;;;;;18.67;11.07;;;;;;;16.30;100.00;100224.88;5031987;28;20459;-70
2023/07/05 02:05:38;;;;;;;16.75;11.07;;;;;;;16.37;100.00;100232.38;5038980;28;20068;-70
2023/07/05 02:08:04;;;;;;;17.20;10.98;;;;;;;16.41;100.00;100223.81;5039439;28;20103;-70
2023/07/05 02:10:32;;;;;;;16.92;10.68;;;;;;;16.52;100.00;100212.03;5030881;28;20084;-70
2023/07/05 02:12:58;;;;;;;16.92;9.68;;;;;;;16.65;100.00;100227.78;5032944;28;20092;-70
2023/07/05 02:15:25;;;;;;;14.98;8.98;;;;;;;16.69;100.00;100221.97;5038556;28;20029;-71
2023/07/05 02:17:52;;;;;;;15.50;12.50;;;;;;;16.69;100.00;100223.81;5033899;28;20057;-70
2023/07/05 02:20:18;;;;;;;16.30;9.13;;;;;;;16.76;100.00;100206.06;5032245;28;20053;-70
2023/07/05 02:22:43;;;;;;;17.13;9.35;;;;;;;16.77;100.00;100205.09;5038819;28;20080;-71
2023/07/05 02:25:09;;;;;;;15.30;8.68;;;;;;;16.81;100.00;100212.69;5044768;28;20045;-70
2023/07/05 02:27:35;;;;;;;12.30;8.48;;;;;;;16.79;100.00;100206.63;5046473;28;20044;-72
2023/07/05 02:30:00;;;;;;;14.38;8.82;;;;;;;16.85;100.00;100204.31;5044265;28;20033;-71
2023/07/05 02:32:26;;;;;;;9.95;7.25;;;;;;;16.87;100.00;100197.78;5041872;28;20040;-71
2023/07/05 02:34:52;;;;;;;19.02;8.63;;;;;;;16.90;100.00;100199.31;5038270;28;20053;-71
2023/07/05 02:37:19;;;;;;;14.52;8.63;;;;;;;16.90;100.00;100205.53;5046192;28;20558;-71
2023/07/05 02:39:45;;;;;;;13.98;7.80;;;;;;;16.95;100.00;100205.09;5038559;28;20033;-71
2023/07/05 02:42:11;;;;;;;9.93;7.18;;;;;;;16.93;100.00;100204.41;5042420;28;20474;-71
2023/07/05 02:44:36;;;;;;;11.10;8.20;;;;;;;16.90;100.00;100200.16;5048388;28;20043;-70
2023/07/05 02:47:03;;;;;;;11.10;6.28;;;;;;;16.80;100.00;100219.06;5039098;28;20041;-72
2023/07/05 02:49:29;;;;;;;9.05;6.95;;;;;;;16.87;100.00;100213.94;5045025;28;20414;-72
2023/07/05 02:51:54;;;;;;;11.07;5.97;;;;;;;16.90;100.00;100216.31;5043770;28;20151;-70
2023/07/05 02:54:20;;;;;;;11.65;5.85;;;;;;;16.94;100.00;100215.00;5046441;28;20099;-71
2023/07/05 02:56:45;;;;;;;10.73;6.20;;;;;;;16.87;100.00;100211.25;5039685;28;20266;-71
2023/07/05 02:59:11;;;;;;;8.27;5.82;;;;;;;16.84;100.00;100222.31;5044543;28;20121;-71
2023/07/05 03:01:37;;;;;;;9.05;5.90;;;;;;;16.83;100.00;100231.41;5037994;28;20080;-73
2023/07/05 03:04:02;;;;;;;11.55;6.03;;;;;;;16.79;100.00;100225.47;5038266;28;20036;-73
2023/07/05 03:06:28;;;;;;;9.68;5.47;;;;;;;16.76;100.00;100236.53;5047095;28;20064;-71
2023/07/05 03:08:54;;;;;;;11.60;4.45;;;;;;;16.64;100.00;100223.41;5037181;28;20314;-71
2023/07/05 03:11:19;;;;;;;6.97;4.50;;;;;;;16.52;100.00;100222.78;5033430;28;20034;-71
2023/07/05 03:13:46;;;;;;;4.78;3.92;;;;;;;16.55;100.00;100220.63;5039100;28;20053;-71
2023/07/05 03:16:12;;;;;;;8.23;4.65;;;;;;;16.55;100.00;100222.47;5038013;28;20033;-70
2023/07/05 03:18:37;;;;;;;5.95;5.10;;;;;;;16.53;100.00;100227.16;5039807;28;20037;-73
2023/07/05 03:21:03;;;;;;;5.95;4.18;;;;;;;16.60;100.00;100222.03;5038578;28;20052;-73
2023/07/05 03:23:28;;;;;;;6.65;5.35;;;;;;;16.46;100.00;100220.69;5046912;28;20026;-73
2023/07/05 03:26:03;;;;;;;11.90;6.60;;;;;;;16.24;100.00;100233.53;5064265;28;20541;-73
2023/07/05 03:28:30;;;;;;;6.18;5.50;;;;;;;16.17;100.00;100229.75;5040567;28;20275;-73
2023/07/05 03:31:04;;;;;;;6.70;5.20;;;;;;;15.90;100.00;100235.94;5046471;28;20071;-73
2023/07/05 03:33:31;;;;;;;8.15;5.95;;;;;;;15.78;100.00;100237.97;5034050;28;20569;-73
2023/07/05 03:36:00;;;;;;;10.48;7.47;;;;;;;15.72;100.00;100253.84;5029886;28;20033;-74
2023/07/05 03:38:27;;;;;;;9.02;5.03;;;;;;;15.64;100.00;100253.69;5063666;28;20069;-73
2023/07/05 03:41:04;;;;;;;8.60;5.38;;;;;;;15.60;100.00;100265.69;5032808;28;20519;-73
2023/07/05 03:43:35;;;;;;;9.30;4.70;;;;;;;15.56;100.00;100265.13;5043698;28;20219;-73
2023/07/05 03:46:02;;;;;;;6.03;4.63;;;;;;;15.47;100.00;100266.00;5041871;28;20120;-73
2023/07/05 03:48:34;;;;;;;5.28;4.70;;;;;;;15.33;100.00;100269.97;5038891;28;20884;-73
2023/07/05 03:51:00;;;;;;;5.15;4.20;;;;;;;15.25;100.00;100275.19;5032338;28;20766;-73
2023/07/05 03:53:26;;;;;;;8.45;4.43;;;;;;;15.25;100.00;100281.41;5030967;28;20053;-72
2023/07/05 03:55:52;;;;;;;7.43;4.43;;;;;;;15.14;100.00;100268.13;5034720;28;20864;-72
2023/07/05 03:58:18;;;;;;;7.13;4.57;;;;;;;15.33;100.00;100266.44;5042680;28;20041;-73
2023/07/05 04:00:45;;;;;;;8.50;4.55;;;;;;;15.33;100.00;100277.19;5070259;28;20045;-72
2023/07/05 04:03:10;;;;;;;9.20;4.25;;;;;;;15.27;100.00;100283.97;5034337;28;20050;-72
2023/07/05 04:05:35;;;;;;;10.50;4.18;;;;;;;15.11;100.00;100279.16;5031835;28;20041;-72
2023/07/05 04:08:01;;;;;;;13.05;5.05;;;;;;;15.07;100.00;100277.72;5036153;28;20037;-72
2023/07/05 04:10:27;;;;;;;6.40;4.45;;;;;;;14.99;100.00;100283.78;5039485;28;20118;-72
2023/07/05 04:12:52;;;;;;;10.68;4.45;;;;;;;15.01;100.00;100272.94;5034453;28;20040;-73
2023/07/05 04:15:19;;;;;;;7.88;4.60;;;;;;;15.04;100.00;100283.38;5034831;28;20055;-73
2023/07/05 04:17:45;;;;;;;8.15;4.60;;;;;;;15.01;100.00;100286.34;5036586;28;20036;-73
2023/07/05 04:20:11;;;;;;;7.70;4.32;;;;;;;15.02;100.00;100267.41;5030506;28;20037;-72
2023/07/05 04:22:39;;;;;;;8.38;4.88;;;;;;;14.88;100.00;100275.03;5035986;28;20029;-72
2023/07/05 04:25:06;;;;;;;8.68;4.63;;;;;;;14.98;100.00;100265.97;5031910;28;20033;-73
2023/07/05 04:27:32;;;;;;;11.23;4.78;;;;;;;15.20;100.00;100269.38;5031627;28;20037;-72
2023/07/05 04:29:57;;;;;;;7.15;4.55;;;;;;;15.19;100.00;100273.06;5030598;28;20628;-72
2023/07/05 04:32:23;;;;;;;7.50;4.78;;;;;;;15.25;100.00;100275.19;5038128;28;20030;-72
2023/07/05 04:34:49;;;;;;;9.65;6.05;;;;;;;15.45;100.00;100260.75;5033259;28;20212;-72
2023/07/05 04:37:14;;;;;;;8.57;4.90;;;;;;;16.46;100.00;100247.59;5036613;28;20132;-72
2023/07/05 04:39:40;;;;;;;6.80;5.13;;;;;;;17.81;100.00;100243.88;5031680;28;20053;-73
2023/07/05 04:42:05;;;;;;;9.85;5.40;;;;;;;18.64;100.00;100249.50;5036324;28;20038;-72
2023/07/05 04:44:31;;;;;;;9.25;5.68;;;;;;;19.69;93.81;100252.56;5032497;28;20044;-72
2023/07/05 04:46:56;;;;;;;9.02;5.65;;;;;;;19.02;90.19;100260.78;5032524;28;20044;-73
2023/07/05 04:49:22;;;;;;;8.23;5.05;;;;;;;19.46;89.72;100255.06;5031413;28;20083;-72
2023/07/05 04:51:48;;;;;;;8.32;5.28;;;;;;;20.16;84.76;100254.50;5030657;28;20050;-72
2023/07/05 04:54:14;;;;;;;8.60;5.30;;;;;;;20.29;80.87;100257.50;5037703;28;20030;-73
2023/07/05 04:56:40;;;;;;;7.45;5.50;;;;;;;20.64;81.85;100255.38;5039650;28;20340;-73
2023/07/05 04:59:06;;;;;;;8.32;4.95;;;;;;;20.24;79.64;100251.78;5044426;28;20149;-72
2023/07/05 05:01:31;;;;;;;6.78;4.95;;;;;;;20.37;78.98;100259.31;5033285;28;20562;-73
2023/07/05 05:03:57;;;;;;;10.05;5.05;;;;;;;20.95;76.33;100248.06;5039504;28;20033;-73
2023/07/05 05:06:23;;;;;;;10.05;5.43;;;;;;;21.52;74.73;100268.53;5030627;28;20046;-73
2023/07/05 05:08:48;;;;;;;9.00;5.13;;;;;;;22.27;68.54;100250.50;5035481;28;20041;-73
2023/07/05 05:11:14;;;;;;;9.75;4.55;;;;;;;21.92;68.77;100252.91;5030343;28;20046;-73
2023/07/05 05:13:39;;;;;;;8.82;5.07;;;;;;;21.76;70.96;100253.06;5035948;28;20140;-72
2023/07/05 05:16:05;;;;;;;9.43;5.05;;;;;;;20.88;73.10;100246.25;5031376;28;20038;-72
2023/07/05 05:18:33;;;;;;;10.05;4.63;;;;;;;21.41;70.84;100239.13;5036054;28;20251;-73
2023/07/05 05:20:59;;;;;;;7.82;4.78;;;;;;;20.13;76.96;100225.06;5034699;28;20040;-73
2023/07/05 05:23:25;;;;;;;8.38;5.05;;;;;;;19.25;82.10;100238.50;5033181;28;20619;-72
2023/07/05 05:25:51;;;;;;;7.65;4.38;;;;;;;18.82;86.28;100230.50;5035194;28;21059;-73
2023/07/05 05:28:17;;;;;;;10.57;5.40;;;;;;;18.04;92.45;100219.06;5044091;28;20076;-73
2023/07/05 05:30:44;;;;;;;9.85;5.10;;;;;;;18.08;95.35;100225.84;5033725;28;20131;-72
2023/07/05 05:33:14;;;;;;;11.93;5.53;;;;;;;19.08;95.24;100222.28;5033205;28;20038;-72
2023/07/05 05:35:45;;;;;;;10.07;5.07;;;;;;;19.05;89.13;100213.66;5040726;28;20029;-71
2023/07/05 05:38:11;;;;;;;10.63;5.82;;;;;;;19.40;87.58;100216.03;5033449;28;20085;-71
2023/07/05 05:40:36;;;;;;;7.32;5.22;;;;;;;19.72;80.58;100219.75;5044830;28;20601;-72
2023/07/05 05:43:02;;;;;;;10.40;4.53;;;;;;;19.02;84.72;100227.50;5044638;28;20778;-72
2023/07/05 05:45:28;;;;;;;7.30;4.63;;;;;;;18.09;92.41;100224.81;5037152;28;20037;-72
2023/07/05 05:47:54;;;;;;;9.27;4.90;;;;;;;17.70;96.50;100229.78;5042933;28;20115;-71
2023/07/05 05:50:22;;;;;;;11.82;5.25;;;;;;;17.92;97.44;100241.91;5037462;28;20040;-71
2023/07/05 05:52:48;;;;;;;10.43;5.40;;;;;;;17.41;100.00;100238.16;5042167;28;20049;-71
2023/07/05 05:55:14;;;;;;;11.05;5.53;;;;;;;17.04;100.00;100237.31;5042078;28;20075;-71
2023/07/05 05:57:39;;;;;;;11.50;4.90;;;;;;;17.67;100.00;100232.78;5045755;28;20037;-73
2023/07/05 06:00:09;;;;;;;9.68;5.00;;;;;;;17.83;100.00;100224.84;5050140;28;20049;-71
2023/07/05 06:02:36;;;;;;;12.13;5.07;;;;;;;18.09;97.31;100225.66;5046049;28;20037;-73
2023/07/05 06:05:03;;;;;;;9.77;4.88;;;;;;;18.11;92.54;100229.03;5041955;28;20077;-71
2023/07/05 06:07:29;;;;;;;8.88;4.68;;;;;;;18.17;92.83;100222.13;5041417;28;20037;-71
2023/07/05 06:09:54;;;;;;;8.90;5.15;;;;;;;17.67;92.74;100225.56;5084345;27;20029;-73
2023/07/05 06:12:20;;;;;;;11.75;4.82;;;;;;;17.73;93.54;100224.13;5044734;28;20179;-71
2023/07/05 06:14:46;;;;;;;7.80;4.35;;;;;;;17.26;96.08;100225.22;5052219;28;20041;-70
2023/07/05 06:17:11;;;;;;;8.23;4.80;;;;;;;17.25;96.67;100223.53;5047725;28;20137;-73
2023/07/05 06:19:37;;;;;;;9.32;4.75;;;;;;;16.97;99.55;100244.34;5047891;28;20033;-74
2023/07/05 06:22:03;;;;;;;6.43;4.40;;;;;;;17.12;100.00;100246.47;5046881;28;20061;-72
2023/07/05 06:24:31;;;;;;;9.02;5.07;;;;;;;16.77;100.00;100269.72;5042858;28;20033;-73
2023/07/05 06:26:58;;;;;;;9.10;4.72;;;;;;;16.33;100.00;100253.34;5052076;28;20037;-73
2023/07/05 06:29:23;;;;;;;9.13;4.53;;;;;;;16.13;100.00;100255.25;5049362;28;20752;-73
2023/07/05 06:31:49;;;;;;;10.15;4.93;;;;;;;16.36;100.00;100257.56;5051851;28;20029;-73
2023/07/05 06:34:15;;;;;;;8.35;5.38;;;;;;;16.60;100.00;100252.47;5047446;28;20041;-73
2023/07/05 06:36:41;;;;;;;10.27;4.72;;;;;;;16.45;100.00;100251.28;5051207;28;20040;-73
2023/07/05 06:39:06;;;;;;;9.32;4.97;;;;;;;16.21;100.00;100259.88;5050376;28;20103;-72
2023/07/05 06:41:32;;;;;;;5.95;4.30;;;;;;;16.21;100.00;100247.28;5051516;28;20033;-72
2023/07/05 06:43:57;;;;;;;9.45;5.07;;;;;;;16.58;100.00;100249.94;5054657;28;20690;-73
2023/07/05 06:46:23;;;;;;;6.65;4.57;;;;;;;16.58;100.00;100263.41;5048911;28;20136;-72
2023/07/05 06:48:52;;;;;;;9.75;5.18;;;;;;;16.33;100.00;100263.25;5049659;28;20036;-72
2023/07/05 06:51:18;;;;;;;10.27;4.55;;;;;;;15.88;100.00;100272.03;5047823;28;20034;-72
2023/07/05 06:53:44;;;;;;;7.25;4.30;;;;;;;15.90;100.00;100275.41;5040275;28;20049;-73
2023/07/05 06:56:10;;;;;;;10.80;4.47;;;;;;;16.30;100.00;100285.91;5044898;28;20523;-72
2023/07/05 06:58:36;;;;;;;9.82;4.43;;;;;;;16.36;100.00;100271.00;5054435;28;20045;-73
2023/07/05 07:01:02;;;;;;;8.02;4.35;;;;;;;16.56;100.00;100280.69;5053246;28;20060;-71
2023/07/05 07:03:28;;;;;;;11.45;4.55;;;;;;;16.72;100.00;100277.41;5054485;28;20083;-72
2023/07/05 07:05:55;;;;;;;6.70;3.88;;;;;;;16.65;100.00;100287.88;5046679;28;20037;-70
2023/07/05 07:08:22;;;;;;;5.93;4.18;;;;;;;16.94;100.00;100281.50;5051585;28;20037;-70
2023/07/05 07:10:48;;;;;;;7.07;3.97;;;;;;;16.85;100.00;100296.72;5054040;28;20033;-70
2023/07/05 07:13:14;;;;;;;8.48;4.85;;;;;;;16.83;100.00;100290.66;5033423;28;20143;-73
2023/07/05 07:15:41;;;;;;;8.63;3.63;;;;;;;16.59;100.00;100304.63;5039267;28;20044;-71
2023/07/05 07:18:08;;;;;;;7.55;4.05;;;;;;;16.39;100.00;100276.94;5045772;28;20044;-71
2023/07/05 07:20:33;;;;;;;5.93;3.45;;;;;;;16.13;100.00;100302.84;5051752;28;20076;-74
2023/07/05 07:22:59;;;;;;;12.45;3.80;;;;;;;16.01;100.00;100294.94;5055109;28;21165;-70
2023/07/05 07:25:26;;;;;;;8.90;3.60;;;;;;;16.02;100.00;100303.84;5052302;28;20033;-70
2023/07/05 07:27:52;;;;;;;6.75;3.20;;;;;;;15.94;100.00;100319.88;5049059;28;20038;-71
2023/07/05 07:30:17;;;;;;;7.85;3.55;;;;;;;15.67;100.00;100308.03;5045774;28;20033;-70
2023/07/05 07:32:46;;;;;;;6.90;3.72;;;;;;;15.52;100.00;100325.53;5037316;28;20850;-73
2023/07/05 07:35:12;;;;;;;5.32;3.10;;;;;;;15.48;100.00;100327.66;5046594;28;20120;-73
2023/07/05 07:37:38;;;;;;;11.18;4.07;;;;;;;15.41;100.00;100334.59;5049260;28;20643;-72
2023/07/05 07:40:06;;;;;;;11.50;4.20;;;;;;;15.15;100.00;100353.06;5047168;28;20075;-72
2023/07/05 07:42:32;;;;;;;6.95;4.40;;;;;;;15.12;100.00;100339.94;5050833;28;20048;-71
2023/07/05 07:44:58;;;;;;;6.18;3.72;;;;;;;15.06;100.00;100359.28;5053942;28;20029;-70
2023/07/05 07:47:24;;;;;;;8.63;4.05;;;;;;;15.07;100.00;100352.09;5037193;28;20120;-72
2023/07/05 07:49:49;;;;;;;7.28;3.40;;;;;;;15.37;100.00;100369.94;5038526;28;20563;-72
2023/07/05 07:52:16;;;;;;;8.27;3.30;;;;;;;15.25;100.00;100345.88;5045664;28;20600;-71
2023/07/05 07:54:42;;;;;;;5.95;3.03;;;;;;;15.36;100.00;100355.66;5042387;28;20119;-72
2023/07/05 07:57:08;;;;;;;5.88;2.65;;;;;;;15.89;100.00;100344.50;5047241;28;20037;-71
2023/07/05 07:59:38;;;;;;;3.53;2.58;;;;;;;15.95;100.00;100332.31;5047240;28;20041;-71
2023/07/05 08:02:06;;;;;;;5.28;2.67;;;;;;;16.14;100.00;100334.97;5046057;28;20045;-71
2023/07/05 08:04:32;;;;;;;8.43;3.20;;;;;;;15.80;100.00;100342.66;5044788;28;20038;-72
2023/07/05 08:06:58;;;;;;;7.10;2.72;;;;;;;16.38;100.00;100342.53;5043873;28;20041;-72
2023/07/05 08:09:28;;;;;;;7.10;3.78;;;;;;;16.21;100.00;100344.13;5048293;28;20041;-72
2023/07/05 08:11:55;;;;;;;8.40;4.05;;;;;;;16.56;100.00;100340.75;5047041;28;20048;-71
2023/07/05 08:14:23;;;;;;;10.98;3.72;;;;;;;16.26;100.00;100327.56;5049952;28;20033;-72
2023/07/05 08:16:48;;;;;;;9.50;4.05;;;;;;;16.46;100.00;100358.78;5048081;28;20151;-72
2023/07/05 08:19:19;;;;;;;11.20;3.55;;;;;;;16.30;100.00;100353.19;5048578;28;20037;-72
2023/07/05 08:21:45;;;;;;;11.50;3.53;;;;;;;15.91;100.00;100355.94;5043909;28;20072;-72
2023/07/05 08:24:14;;;;;;;7.60;2.88;;;;;;;15.73;100.00;100369.28;5048025;28;20044;-73
2023/07/05 08:26:43;;;;;;;8.88;3.72;;;;;;;15.44;100.00;100385.34;5046994;28;20033;-73
2023/07/05 08:29:08;;;;;;;7.75;3.53;;;;;;;15.66;100.00;100386.97;5046320;28;20120;-72
2023/07/05 08:31:35;;;;;;;9.32;3.67;;;;;;;15.90;100.00;100385.66;5045464;28;20025;-73
2023/07/05 08:34:01;;;;;;;8.40;4.07;;;;;;;16.47;100.00;100398.19;5042814;28;20033;-72
2023/07/05 08:36:34;;;;;;;6.68;3.45;;;;;;;16.59;100.00;100401.53;5045048;28;20045;-72
2023/07/05 08:39:03;;;;;;;10.52;3.95;;;;;;;17.03;100.00;100375.72;5046187;28;20033;-73
2023/07/05 08:41:46;;;;;;;8.75;3.72;;;;;;;17.30;100.00;100385.63;5045403;28;20045;-72
2023/07/05 08:44:57;;;;;;;9.50;3.95;;;;;;;17.11;100.00;100387.59;5048147;28;20048;-72
2023/07/05 08:47:36;;;;;;;10.02;3.15;;;;;;;16.82;100.00;100392.13;5007317;28;20088;-72
2023/07/05 08:50:37;;;;;;;7.97;3.97;;;;;;;17.11;100.00;100409.13;5044746;28;20041;-72
2023/07/05 08:53:13;;;;;;;7.70;4.50;;;;;;;16.94;100.00;100389.25;5036182;28;20061;-72
2023/07/05 08:55:48;;;;;;;6.47;4.82;;;;;;;16.67;100.00;100403.50;5039741;28;20068;-72
2023/07/05 08:58:21;;;;;;;7.43;4.82;;;;;;;16.46;100.00;100403.69;5026640;28;20045;-72
2023/07/05 09:00:55;;;;;;;12.20;4.85;;;;;;;17.61;100.00;100407.66;5038694;28;20056;-72
2023/07/05 09:03:22;;;;;;;8.63;4.47;;;;;;;17.96;100.00;100397.91;5042965;28;20131;-72
2023/07/05 09:06:09;;;;;;;6.15;4.60;;;;;;;18.13;100.00;100403.47;5039572;28;20034;-72
2023/07/05 09:08:55;;;;;;;9.77;4.80;;;;;;;18.33;100.00;100404.97;5037289;28;20050;-72
2023/07/05 09:11:34;;;;;;;10.85;5.22;;;;;;;18.92;100.00;100399.75;5039390;28;20046;-72
2023/07/05 09:14:23;;;;;;;7.55;4.55;;;;;;;19.19;99.36;100398.69;5034205;28;20869;-72
2023/07/05 09:17:07;;;;;;;7.68;5.22;;;;;;;19.30;98.19;100398.38;5040698;28;20057;-72
2023/07/05 09:19:41;;;;;;;8.48;4.32;;;;;;;19.65;93.80;100398.13;5046168;28;20044;-72
2023/07/05 09:22:13;;;;;;;8.35;4.45;;;;;;;20.03;94.79;100403.06;5047465;28;20045;-72
2023/07/05 09:24:43;;;;;;;7.97;4.35;;;;;;;20.42;89.78;100393.22;5046706;28;20041;-72
2023/07/05 09:27:16;;;;;;;7.13;3.85;;;;;;;19.52;90.18;100423.94;5043977;28;20095;-72
2023/07/05 09:29:50;;;;;;;;;;;;;;;19.53;89.84;100429.22;5044717;28;20037;-72
2023/07/05 09:32:19;;;;;;;14.80;4.65;;;;;;;19.62;88.84;100422.81;5049629;28;20058;-72
2023/07/05 09:34:59;;;;;;;8.27;4.68;;;;;;;20.42;86.13;100439.25;5046739;28;20037;-72
2023/07/05 09:37:31;;;;;;;10.13;4.43;;;;;;;21.07;85.38;100424.72;5035340;28;20034;-72
2023/07/05 09:40:27;;;;;;;8.25;4.07;;;;;;;20.71;85.42;100404.53;5037740;28;20068;-72
2023/07/05 09:43:14;;;;;;;12.23;4.32;;;;;;;19.74;88.94;100390.03;5040348;28;20090;-72
2023/07/05 09:45:40;;;;;;;17.50;4.75;;;;;;;19.25;88.40;100444.81;5046095;28;20274;-71
2023/07/05 09:48:10;;;;;;;9.50;3.72;;;;;;;19.44;87.90;100469.91;5034685;28;20866;-72
2023/07/05 09:50:35;;;;;;;13.25;4.32;;;;;;;18.97;88.64;100492.81;5041335;28;21024;-72
2023/07/05 09:53:16;;;;;;;7.03;3.38;;;;;;;19.37;86.58;100477.81;5043425;28;20063;-72
2023/07/05 09:56:04;;;;;;;10.18;4.05;;;;;;;19.09;88.60;100491.56;5040083;28;20102;-72
2023/07/05 09:58:33;;;;;;;11.77;3.90;;;;;;;19.60;86.22;100478.09;5033091;28;20061;-72
2023/07/05 10:01:04;;;;;;;11.88;4.30;;;;;;;19.17;85.93;100492.59;5038932;28;20037;-72
2023/07/05 10:03:43;;;;;;;15.73;4.38;;;;;;;18.52;87.61;100488.44;5033573;28;20520;-72
2023/07/05 10:06:10;;;;;;;10.88;3.67;;;;;;;18.07;91.44;100507.44;5044667;28;20100;-72
2023/07/05 10:08:49;;;;;;;7.00;3.33;;;;;;;17.67;92.44;100514.09;5047056;28;20135;-73
2023/07/05 10:11:23;;;;;;;13.65;3.85;;;;;;;17.47;93.91;100528.66;5046120;28;20036;-72
2023/07/05 10:14:20;;;;;;;9.38;3.38;;;;;;;17.58;97.40;100533.88;5040151;28;20045;-72
2023/07/05 10:16:52;;;;;;;8.13;2.92;;;;;;;17.53;97.08;100533.47;5040813;28;20052;-71
2023/07/05 10:19:21;;;;;;;12.05;3.55;;;;;;;17.52;96.00;100569.50;5033425;28;20021;-72
2023/07/05 10:21:48;;;;;;;11.32;3.67;;;;;;;17.48;98.73;100562.75;5039749;28;20046;-72
2023/07/05 10:24:18;;;;;;;11.20;3.65;;;;;;;17.41;100.00;100570.53;5039519;28;20225;-72
2023/07/05 10:26:43;;;;;;;9.05;3.22;;;;;;;16.94;100.00;100540.94;5041805;28;20065;-72
2023/07/05 10:29:10;;;;;;;9.80;3.95;;;;;;;16.94;100.00;100589.41;5036160;28;20034;-71
2023/07/05 10:31:36;;;;;;;7.57;3.50;;;;;;;17.14;100.00;100603.69;5033518;28;20180;-71
2023/07/05 10:34:22;;;;;;;6.28;3.13;;;;;;;17.01;100.00;100613.91;5033041;28;20041;-72
2023/07/05 10:36:48;;;;;;;12.30;4.47;;;;;;;17.06;100.00;100614.34;5037454;28;20037;-71
2023/07/05 10:39:21;;;;;;;13.77;3.45;;;;;;;17.26;100.00;100620.53;5038571;28;20041;-71
2023/07/05 10:41:48;;;;;;;14.10;4.15;;;;;;;17.03;100.00;100631.66;5040184;28;20155;-71
2023/07/05 10:44:24;;;;;;;5.93;3.15;;;;;;;16.59;100.00;100630.38;5043286;28;20032;-71
2023/07/05 10:46:50;;;;;;;10.88;3.97;;;;;;;16.73;100.00;100656.91;5044149;28;20032;-71
2023/07/05 10:49:19;;;;;;;10.98;3.97;;;;;;;16.45;100.00;100628.94;5043546;28;20067;-71
2023/07/05 10:51:59;;;;;;;8.55;4.18;;;;;;;16.92;100.00;100647.09;5035898;28;20034;-71
2023/07/05 10:54:47;;;;;;;8.07;3.80;;;;;;;17.11;100.00;100646.25;5032180;28;20052;-71
2023/07/05 10:57:25;;;;;;;13.98;3.70;;;;;;;17.41;100.00;100653.28;5030953;28;20041;-71
2023/07/05 11:00:23;;;;;;;7.65;2.60;;;;;;;17.88;93.18;100648.75;5034008;28;20995;-72
2023/07/05 11:02:58;;;;;;;9.40;2.70;;;;;;;18.31;83.55;100647.22;5030227;28;20060;-71
2023/07/05 11:05:38;;;;;;;15.68;2.40;;;;;;;19.35;77.33;100628.56;5032428;28;20849;-71
2023/07/05 11:08:11;;;;;;;8.75;2.63;;;;;;;19.73;76.78;100631.84;5036186;28;20041;-71
2023/07/05 11:10:41;;;;;;;7.70;1.98;;;;;;;20.11;70.48;100635.91;5032275;28;20634;-72
2023/07/05 11:13:13;;;;;;;11.95;2.40;;;;;;;19.93;71.39;100630.59;5033442;28;20149;-71
2023/07/05 11:15:39;;;;;;;11.43;2.85;;;;;;;19.87;71.88;100656.44;5038509;28;20283;-72
2023/07/05 11:18:07;;;;;;;7.68;2.35;;;;;;;20.39;69.27;100644.63;5032902;28;20162;-72
2023/07/05 11:20:36;;;;;;;7.03;2.25;;;;;;;20.20;67.74;100642.19;5037466;28;20030;-72
2023/07/05 11:23:02;;;;;;;8.32;1.90;;;;;;;20.43;67.63;100668.50;5041364;28;20108;-72
2023/07/05 11:25:52;;;;;;;3.67;2.13;;;;;;;20.58;65.69;100655.19;5034678;28;20300;-71